Accueil
METAR-TAF:

METAR-TAF

Aéroports :

Nouakchott, Mauritanie

Aéroport international de Nouakchott-Oumtounsy

latitude: 18-18-36N, longitude: 015-58-11W, altitude: 3 m

Observation

Le bulletin a été fait il y a 17 minutes, à 08:30 UTC
Vent 12 kt de nord/nord-ouest
Température 25°C
Humidité 83%
Pression 1013 hPa
Visibilité: 8000 m

METAR: GQNO 240830Z 33012KT 8000 NSC 25/22 Q1013 NOSIG

Heure: 08:47 (08:47 UTC)

Prévision

Le bulletin a été fait il y a 15 heures et 47 minutes, à 17:00 UTC
Prévision valable du 23 à 18 UTC au 24 à 24 UTC
Vent 16 kt de nord-ouest
Visibilité: 7000 m

TAF: GQNO 231700Z 2318/2424 31016KT 7000 NSC

Observations et prévisions météorologiques de plus de 4000 aéroports (messages METAR et TAF).

Les stations disponibles sont représentées par des disques jaunes et rouges sur la carte.

Passer la souris dessus pour voir le nom de la station.

Cliquer dessus pour voir les observations et prévisions météorologiques.

Pour changer de carte: cliquez sur les boutons verts avec une croix noire pour zoomer, sur le bouton vert avec un tiret pour effectuer un zoom arrière, ou sur les flèches vertes pour les cartes adjacentes.


METAR-TAF: